Impacts TAF Board INFO
IDs:

KPHX - Phoenix/Sky Harbor, AZ, US

Issued at 1120 UTC 07 Dec 2016
Updated at 1424 UTC 07 Dec 2016
Potential Impact None Slight Moderate High
Time1351Z 07/15Z 07/16Z 07/17Z 07/18Z 07/19Z 07/20Z 07/21Z 07/22Z 07/23Z 08/00Z 08/01Z 08/02Z 08/03Z
Type OBS PRVL
  [TEMP]  
PRVL PRVL PRVL PRVL PRVL PRVL PRVL PRVL PRVL PRVL PRVL PRVL
VIS 10 >6 >6 >6 >6 >6 >6 >6 >6 >6 >6 >6 >6 >6
CIG 250 200
  [45]  
200 200 200 200 200 250 250 250 250 250 250 250
Cover BKN OVC
  [BKN]  
OVC OVC OVC OVC OVC BKN BKN BKN BKN BKN BKN BKN
FltCat VFR VFR
  [VFR]  
VFR VFR VFR VFR VFR VFR VFR VFR VFR VFR VFR VFR
WX -- --
  [--]  
-- -- -- -- -- -- -- -- -- -- -- --
WDir 110 100
[100]
100 100 100 100 100 240 240 240 240 240 VRB VRB
WSpd 5 5
  [5]  
5 5 5 5 5 5 5 5 5 5 4 4
WGst -- --
  [--]  
-- -- -- -- -- -- -- -- -- -- -- --

Raw TAF
KPHX 071120Z 0712/0812 10005KT P6SM SCT045 OVC200
  TEMPO 0712/0716 SCT030 BKN045
  FM072100 24005KT P6SM FEW050 BKN250
  FM080200 VRB04KT P6SM BKN250
  FM080700 12004KT P6SM SCT250


Raw METAR
KPHX 071351Z 11005KT 10SM FEW040 BKN250 09/05 A2997 RMK AO2 SLP143 T00890050
KPHX 071251Z 11003KT 10SM FEW150 FEW250 09/05 A2995 RMK AO2 SLP135 T00890050
KPHX 071151Z 00000KT 10SM FEW150 SCT250 09/04 A2992 RMK AO2 SLP126 T00940044 10133 20089 50005

METAR Board
Radar Display
Forecast Discussion